sensor_id;sensor_type;location;lat;lon;timestamp;P1;durP1;ratioP1;P2;durP2;ratioP2
17151;SDS011;8691;50.828;4.700;2022-12-05T00:02:02;51.20;;;30.60;;
17151;SDS011;8691;50.828;4.700;2022-12-05T00:04:29;61.65;;;39.65;;
17151;SDS011;8691;50.828;4.700;2022-12-05T00:06:56;60.35;;;40.72;;
17151;SDS011;8691;50.828;4.700;2022-12-05T00:09:22;45.50;;;28.13;;
17151;SDS011;8691;50.828;4.700;2022-12-05T00:11:49;60.35;;;39.12;;
17151;SDS011;8691;50.828;4.700;2022-12-05T00:14:16;59.77;;;38.90;;
17151;SDS011;8691;50.828;4.700;2022-12-05T00:16:43;61.73;;;39.77;;
17151;SDS011;8691;50.828;4.700;2022-12-05T00:19:11;56.47;;;39.47;;
17151;SDS011;8691;50.828;4.700;2022-12-05T00:21:37;61.17;;;39.97;;
17151;SDS011;8691;50.828;4.700;2022-12-05T00:24:04;49.33;;;27.90;;
17151;SDS011;8691;50.828;4.700;2022-12-05T00:26:30;57.33;;;38.22;;
17151;SDS011;8691;50.828;4.700;2022-12-05T00:28:58;55.50;;;37.93;;
17151;SDS011;8691;50.828;4.700;2022-12-05T00:31:25;51.33;;;29.33;;
17151;SDS011;8691;50.828;4.700;2022-12-05T00:33:52;56.53;;;36.87;;
17151;SDS011;8691;50.828;4.700;2022-12-05T00:36:25;56.57;;;37.27;;
17151;SDS011;8691;50.828;4.700;2022-12-05T00:38:52;54.27;;;36.67;;
17151;SDS011;8691;50.828;4.700;2022-12-05T00:41:20;40.67;;;27.90;;
17151;SDS011;8691;50.828;4.700;2022-12-05T00:43:46;53.93;;;36.27;;
17151;SDS011;8691;50.828;4.700;2022-12-05T00:46:14;53.88;;;36.45;;
17151;SDS011;8691;50.828;4.700;2022-12-05T00:48:40;43.77;;;27.10;;
17151;SDS011;8691;50.828;4.700;2022-12-05T00:51:10;50.00;;;34.20;;
17151;SDS011;8691;50.828;4.700;2022-12-05T00:53:43;53.72;;;36.00;;
17151;SDS011;8691;50.828;4.700;2022-12-05T00:56:14;51.22;;;35.95;;
17151;SDS011;8691;50.828;4.700;2022-12-05T00:58:40;47.28;;;26.88;;
17151;SDS011;8691;50.828;4.700;2022-12-05T01:01:10;40.63;;;24.93;;
17151;SDS011;8691;50.828;4.700;2022-12-05T01:03:36;52.35;;;34.72;;
17151;SDS011;8691;50.828;4.700;2022-12-05T01:06:03;50.63;;;35.03;;
17151;SDS011;8691;50.828;4.700;2022-12-05T01:08:30;51.57;;;35.00;;
17151;SDS011;8691;50.828;4.700;2022-12-05T01:10:57;55.17;;;36.13;;
17151;SDS011;8691;50.828;4.700;2022-12-05T01:13:25;52.83;;;36.67;;
17151;SDS011;8691;50.828;4.700;2022-12-05T01:15:51;54.10;;;35.25;;
17151;SDS011;8691;50.828;4.700;2022-12-05T01:18:18;49.55;;;34.17;;
17151;SDS011;8691;50.828;4.700;2022-12-05T01:20:45;51.72;;;33.70;;
17151;SDS011;8691;50.828;4.700;2022-12-05T01:23:12;48.23;;;33.93;;
17151;SDS011;8691;50.828;4.700;2022-12-05T01:25:43;52.90;;;35.07;;
17151;SDS011;8691;50.828;4.700;2022-12-05T01:28:09;49.50;;;35.10;;
17151;SDS011;8691;50.828;4.700;2022-12-05T01:30:37;49.10;;;33.85;;
17151;SDS011;8691;50.828;4.700;2022-12-05T01:33:07;49.28;;;34.45;;
17151;SDS011;8691;50.828;4.700;2022-12-05T01:35:34;51.77;;;35.27;;
17151;SDS011;8691;50.828;4.700;2022-12-05T01:38:01;49.17;;;34.70;;
17151;SDS011;8691;50.828;4.700;2022-12-05T01:40:29;53.33;;;34.30;;
17151;SDS011;8691;50.828;4.700;2022-12-05T01:42:56;48.83;;;33.90;;
17151;SDS011;8691;50.828;4.700;2022-12-05T01:45:34;50.13;;;34.30;;
17151;SDS011;8691;50.828;4.700;2022-12-05T01:48:02;51.40;;;34.03;;
17151;SDS011;8691;50.828;4.700;2022-12-05T01:50:29;50.90;;;34.00;;
17151;SDS011;8691;50.828;4.700;2022-12-05T01:52:56;54.30;;;34.53;;
17151;SDS011;8691;50.828;4.700;2022-12-05T01:55:22;50.72;;;34.35;;
17151;SDS011;8691;50.828;4.700;2022-12-05T01:57:49;50.25;;;33.88;;
17151;SDS011;8691;50.828;4.700;2022-12-05T02:00:18;51.78;;;34.05;;
17151;SDS011;8691;50.828;4.700;2022-12-05T02:02:48;50.75;;;34.78;;
17151;SDS011;8691;50.828;4.700;2022-12-05T02:05:25;54.70;;;35.40;;
17151;SDS011;8691;50.828;4.700;2022-12-05T02:07:51;40.17;;;24.37;;
17151;SDS011;8691;50.828;4.700;2022-12-05T02:10:18;54.77;;;34.53;;
17151;SDS011;8691;50.828;4.700;2022-12-05T02:12:44;43.30;;;26.43;;
17151;SDS011;8691;50.828;4.700;2022-12-05T02:18:00;55.20;;;36.23;;
17151;SDS011;8691;50.828;4.700;2022-12-05T02:29:11;53.60;;;34.53;;
17151;SDS011;8691;50.828;4.700;2022-12-05T02:37:27;55.95;;;36.60;;
17151;SDS011;8691;50.828;4.700;2022-12-05T02:39:45;55.20;;;36.42;;
17151;SDS011;8691;50.828;4.700;2022-12-05T02:45:06;54.75;;;35.90;;
17151;SDS011;8691;50.828;4.700;2022-12-05T02:47:32;58.65;;;36.97;;
17151;SDS011;8691;50.828;4.700;2022-12-05T02:49:58;53.92;;;35.90;;
17151;SDS011;8691;50.828;4.700;2022-12-05T02:52:25;55.22;;;35.65;;
17151;SDS011;8691;50.828;4.700;2022-12-05T02:54:52;52.88;;;35.10;;
17151;SDS011;8691;50.828;4.700;2022-12-05T02:57:20;55.12;;;36.05;;
17151;SDS011;8691;50.828;4.700;2022-12-05T02:59:47;56.80;;;36.17;;
17151;SDS011;8691;50.828;4.700;2022-12-05T03:02:23;54.03;;;35.08;;
17151;SDS011;8691;50.828;4.700;2022-12-05T03:04:54;52.40;;;34.97;;
17151;SDS011;8691;50.828;4.700;2022-12-05T03:07:21;54.57;;;35.70;;
17151;SDS011;8691;50.828;4.700;2022-12-05T03:09:50;53.08;;;35.28;;
17151;SDS011;8691;50.828;4.700;2022-12-05T03:12:17;53.65;;;34.97;;
17151;SDS011;8691;50.828;4.700;2022-12-05T03:14:53;55.12;;;36.00;;
17151;SDS011;8691;50.828;4.700;2022-12-05T03:17:09;52.17;;;35.50;;
17151;SDS011;8691;50.828;4.700;2022-12-05T03:19:40;56.92;;;36.28;;
17151;SDS011;8691;50.828;4.700;2022-12-05T03:22:05;54.12;;;36.28;;
17151;SDS011;8691;50.828;4.700;2022-12-05T03:24:29;47.43;;;27.23;;
17151;SDS011;8691;50.828;4.700;2022-12-05T03:27:00;54.10;;;34.15;;
17151;SDS011;8691;50.828;4.700;2022-12-05T03:29:33;41.77;;;25.07;;
17151;SDS011;8691;50.828;4.700;2022-12-05T03:39:53;52.30;;;34.27;;
17151;SDS011;8691;50.828;4.700;2022-12-05T03:42:18;51.53;;;34.27;;
17151;SDS011;8691;50.828;4.700;2022-12-05T03:44:53;53.43;;;34.10;;
17151;SDS011;8691;50.828;4.700;2022-12-05T03:49:49;44.47;;;26.43;;
17151;SDS011;8691;50.828;4.700;2022-12-05T03:52:24;50.07;;;33.57;;
17151;SDS011;8691;50.828;4.700;2022-12-05T03:54:52;49.07;;;33.80;;
17151;SDS011;8691;50.828;4.700;2022-12-05T03:59:56;52.80;;;34.30;;
17151;SDS011;8691;50.828;4.700;2022-12-05T04:02:27;49.65;;;33.38;;
17151;SDS011;8691;50.828;4.700;2022-12-05T04:04:59;52.30;;;34.85;;
17151;SDS011;8691;50.828;4.700;2022-12-05T04:07:26;51.30;;;33.95;;
17151;SDS011;8691;50.828;4.700;2022-12-05T04:09:54;42.97;;;25.27;;
17151;SDS011;8691;50.828;4.700;2022-12-05T04:12:24;51.17;;;33.40;;
17151;SDS011;8691;50.828;4.700;2022-12-05T04:14:51;39.28;;;25.08;;
17151;SDS011;8691;50.828;4.700;2022-12-05T04:17:19;52.10;;;33.78;;
17151;SDS011;8691;50.828;4.700;2022-12-05T04:19:47;40.27;;;24.70;;
17151;SDS011;8691;50.828;4.700;2022-12-05T04:22:31;50.63;;;26.37;;
17151;SDS011;8691;50.828;4.700;2022-12-05T04:24:58;41.77;;;23.40;;
17151;SDS011;8691;50.828;4.700;2022-12-05T04:30:25;51.90;;;33.55;;
17151;SDS011;8691;50.828;4.700;2022-12-05T04:35:55;50.78;;;33.85;;
17151;SDS011;8691;50.828;4.700;2022-12-05T04:38:22;52.15;;;34.60;;
17151;SDS011;8691;50.828;4.700;2022-12-05T04:40:52;52.33;;;34.05;;
17151;SDS011;8691;50.828;4.700;2022-12-05T04:43:16;52.72;;;34.53;;
17151;SDS011;8691;50.828;4.700;2022-12-05T04:45:43;51.28;;;32.97;;
17151;SDS011;8691;50.828;4.700;2022-12-05T04:48:12;43.23;;;25.13;;
17151;SDS011;8691;50.828;4.700;2022-12-05T04:50:37;53.53;;;34.17;;
17151;SDS011;8691;50.828;4.700;2022-12-05T04:53:04;53.50;;;34.90;;
17151;SDS011;8691;50.828;4.700;2022-12-05T04:55:31;53.63;;;34.43;;
17151;SDS011;8691;50.828;4.700;2022-12-05T04:58:03;58.23;;;36.07;;
17151;SDS011;8691;50.828;4.700;2022-12-05T05:00:28;57.07;;;35.57;;
17151;SDS011;8691;50.828;4.700;2022-12-05T05:03:03;51.83;;;34.93;;
17151;SDS011;8691;50.828;4.700;2022-12-05T05:05:29;56.95;;;35.90;;
17151;SDS011;8691;50.828;4.700;2022-12-05T05:07:56;59.03;;;36.42;;
17151;SDS011;8691;50.828;4.700;2022-12-05T05:10:44;60.65;;;36.53;;
17151;SDS011;8691;50.828;4.700;2022-12-05T05:13:02;60.90;;;37.30;;
17151;SDS011;8691;50.828;4.700;2022-12-05T05:15:28;46.37;;;26.87;;
17151;SDS011;8691;50.828;4.700;2022-12-05T05:17:55;60.43;;;35.10;;
17151;SDS011;8691;50.828;4.700;2022-12-05T05:20:22;59.93;;;36.63;;
17151;SDS011;8691;50.828;4.700;2022-12-05T05:22:52;58.27;;;37.17;;
17151;SDS011;8691;50.828;4.700;2022-12-05T05:25:17;56.17;;;27.90;;
17151;SDS011;8691;50.828;4.700;2022-12-05T05:27:46;55.67;;;35.53;;
17151;SDS011;8691;50.828;4.700;2022-12-05T05:30:10;59.33;;;36.35;;
17151;SDS011;8691;50.828;4.700;2022-12-05T05:32:37;58.30;;;36.38;;
17151;SDS011;8691;50.828;4.700;2022-12-05T05:35:04;48.93;;;26.37;;
17151;SDS011;8691;50.828;4.700;2022-12-05T05:37:31;58.47;;;36.30;;
17151;SDS011;8691;50.828;4.700;2022-12-05T05:39:57;55.50;;;36.27;;
17151;SDS011;8691;50.828;4.700;2022-12-05T05:42:24;58.67;;;36.03;;
17151;SDS011;8691;50.828;4.700;2022-12-05T05:44:52;51.83;;;27.93;;
17151;SDS011;8691;50.828;4.700;2022-12-05T05:47:19;49.77;;;25.53;;
17151;SDS011;8691;50.828;4.700;2022-12-05T05:49:46;56.97;;;35.27;;
17151;SDS011;8691;50.828;4.700;2022-12-05T05:52:13;55.60;;;35.38;;
17151;SDS011;8691;50.828;4.700;2022-12-05T05:54:40;60.55;;;37.03;;
17151;SDS011;8691;50.828;4.700;2022-12-05T05:57:07;56.38;;;37.47;;
17151;SDS011;8691;50.828;4.700;2022-12-05T05:59:34;59.75;;;37.72;;
17151;SDS011;8691;50.828;4.700;2022-12-05T06:02:01;61.90;;;37.40;;
17151;SDS011;8691;50.828;4.700;2022-12-05T06:04:28;60.35;;;38.03;;
17151;SDS011;8691;50.828;4.700;2022-12-05T06:06:55;57.00;;;36.22;;
17151;SDS011;8691;50.828;4.700;2022-12-05T06:09:22;55.43;;;36.10;;
17151;SDS011;8691;50.828;4.700;2022-12-05T06:11:49;59.95;;;36.00;;
17151;SDS011;8691;50.828;4.700;2022-12-05T06:14:16;60.28;;;37.47;;
17151;SDS011;8691;50.828;4.700;2022-12-05T06:16:43;57.80;;;36.80;;
17151;SDS011;8691;50.828;4.700;2022-12-05T06:19:10;52.83;;;35.47;;
17151;SDS011;8691;50.828;4.700;2022-12-05T06:21:37;43.37;;;26.30;;
17151;SDS011;8691;50.828;4.700;2022-12-05T06:24:04;61.40;;;35.85;;
17151;SDS011;8691;50.828;4.700;2022-12-05T06:26:30;57.97;;;35.83;;
17151;SDS011;8691;50.828;4.700;2022-12-05T06:28:57;57.60;;;35.57;;
17151;SDS011;8691;50.828;4.700;2022-12-05T06:31:25;58.40;;;35.40;;
17151;SDS011;8691;50.828;4.700;2022-12-05T06:33:52;57.85;;;36.22;;
17151;SDS011;8691;50.828;4.700;2022-12-05T06:36:19;55.53;;;35.80;;
17151;SDS011;8691;50.828;4.700;2022-12-05T06:38:46;53.45;;;35.25;;
17151;SDS011;8691;50.828;4.700;2022-12-05T06:41:13;51.80;;;33.17;;
17151;SDS011;8691;50.828;4.700;2022-12-05T06:43:40;42.73;;;25.07;;
17151;SDS011;8691;50.828;4.700;2022-12-05T06:46:07;43.33;;;30.52;;
17151;SDS011;8691;50.828;4.700;2022-12-05T06:48:34;46.53;;;32.33;;
17151;SDS011;8691;50.828;4.700;2022-12-05T06:51:01;48.03;;;31.95;;
17151;SDS011;8691;50.828;4.700;2022-12-05T06:53:27;45.22;;;30.88;;
17151;SDS011;8691;50.828;4.700;2022-12-05T06:55:59;35.60;;;22.23;;
17151;SDS011;8691;50.828;4.700;2022-12-05T06:58:22;39.92;;;28.90;;
17151;SDS011;8691;50.828;4.700;2022-12-05T07:00:49;38.00;;;29.05;;
17151;SDS011;8691;50.828;4.700;2022-12-05T07:03:33;36.23;;;22.47;;
17151;SDS011;8691;50.828;4.700;2022-12-05T07:06:00;33.00;;;20.13;;
17151;SDS011;8691;50.828;4.700;2022-12-05T07:08:27;41.27;;;29.80;;
17151;SDS011;8691;50.828;4.700;2022-12-05T07:10:53;34.70;;;22.60;;
17151;SDS011;8691;50.828;4.700;2022-12-05T07:13:20;42.33;;;30.23;;
17151;SDS011;8691;50.828;4.700;2022-12-05T07:15:47;43.40;;;31.23;;
17151;SDS011;8691;50.828;4.700;2022-12-05T07:18:14;38.07;;;24.10;;
17151;SDS011;8691;50.828;4.700;2022-12-05T07:20:42;41.75;;;29.62;;
17151;SDS011;8691;50.828;4.700;2022-12-05T07:23:09;41.12;;;30.15;;
17151;SDS011;8691;50.828;4.700;2022-12-05T07:25:39;39.47;;;29.48;;
17151;SDS011;8691;50.828;4.700;2022-12-05T07:28:06;34.55;;;23.38;;
17151;SDS011;8691;50.828;4.700;2022-12-05T07:30:33;37.37;;;21.33;;
17151;SDS011;8691;50.828;4.700;2022-12-05T07:32:59;40.60;;;29.77;;
17151;SDS011;8691;50.828;4.700;2022-12-05T07:35:26;33.53;;;23.10;;
17151;SDS011;8691;50.828;4.700;2022-12-05T07:37:53;40.77;;;29.87;;
17151;SDS011;8691;50.828;4.700;2022-12-05T07:40:19;35.43;;;23.17;;
17151;SDS011;8691;50.828;4.700;2022-12-05T07:42:47;38.80;;;30.35;;
17151;SDS011;8691;50.828;4.700;2022-12-05T07:45:14;32.73;;;21.87;;
17151;SDS011;8691;50.828;4.700;2022-12-05T07:47:40;38.92;;;28.73;;
17151;SDS011;8691;50.828;4.700;2022-12-05T07:50:07;41.25;;;28.77;;
17151;SDS011;8691;50.828;4.700;2022-12-05T07:52:34;37.08;;;28.55;;
17151;SDS011;8691;50.828;4.700;2022-12-05T07:55:01;38.37;;;29.23;;
17151;SDS011;8691;50.828;4.700;2022-12-05T07:57:29;40.83;;;29.30;;
17151;SDS011;8691;50.828;4.700;2022-12-05T07:59:55;37.57;;;22.00;;
17151;SDS011;8691;50.828;4.700;2022-12-05T08:02:22;38.42;;;28.10;;
17151;SDS011;8691;50.828;4.700;2022-12-05T08:04:48;32.83;;;20.83;;
17151;SDS011;8691;50.828;4.700;2022-12-05T08:07:15;37.10;;;28.02;;
17151;SDS011;8691;50.828;4.700;2022-12-05T08:09:42;31.73;;;21.47;;
17151;SDS011;8691;50.828;4.700;2022-12-05T08:12:10;32.13;;;20.90;;
17151;SDS011;8691;50.828;4.700;2022-12-05T08:14:37;35.53;;;27.95;;
17151;SDS011;8691;50.828;4.700;2022-12-05T08:17:04;38.17;;;29.03;;
17151;SDS011;8691;50.828;4.700;2022-12-05T08:19:31;37.28;;;29.10;;
17151;SDS011;8691;50.828;4.700;2022-12-05T08:21:58;31.80;;;21.93;;
17151;SDS011;8691;50.828;4.700;2022-12-05T08:24:25;38.62;;;29.85;;
17151;SDS011;8691;50.828;4.700;2022-12-05T08:26:52;37.60;;;29.80;;
17151;SDS011;8691;50.828;4.700;2022-12-05T08:29:19;37.13;;;28.60;;
17151;SDS011;8691;50.828;4.700;2022-12-05T08:31:46;37.63;;;28.87;;
17151;SDS011;8691;50.828;4.700;2022-12-05T08:34:12;35.97;;;27.00;;
17151;SDS011;8691;50.828;4.700;2022-12-05T08:36:39;33.30;;;26.77;;
17151;SDS011;8691;50.828;4.700;2022-12-05T08:39:06;33.47;;;27.13;;
17151;SDS011;8691;50.828;4.700;2022-12-05T08:41:33;28.47;;;20.03;;
17151;SDS011;8691;50.828;4.700;2022-12-05T08:44:01;30.23;;;20.67;;
17151;SDS011;8691;50.828;4.700;2022-12-05T08:46:31;35.03;;;26.77;;
17151;SDS011;8691;50.828;4.700;2022-12-05T08:48:57;34.10;;;26.92;;
17151;SDS011;8691;50.828;4.700;2022-12-05T08:51:24;32.95;;;26.88;;
17151;SDS011;8691;50.828;4.700;2022-12-05T08:53:51;26.37;;;19.10;;
17151;SDS011;8691;50.828;4.700;2022-12-05T08:56:19;34.22;;;25.48;;
17151;SDS011;8691;50.828;4.700;2022-12-05T08:58:46;31.12;;;24.48;;
17151;SDS011;8691;50.828;4.700;2022-12-05T09:01:14;28.80;;;24.35;;
17151;SDS011;8691;50.828;4.700;2022-12-05T09:03:41;32.72;;;25.38;;
17151;SDS011;8691;50.828;4.700;2022-12-05T09:06:09;31.75;;;24.95;;
17151;SDS011;8691;50.828;4.700;2022-12-05T09:08:36;31.00;;;24.77;;
17151;SDS011;8691;50.828;4.700;2022-12-05T09:11:07;28.80;;;22.63;;
17151;SDS011;8691;50.828;4.700;2022-12-05T09:13:34;28.47;;;22.97;;
17151;SDS011;8691;50.828;4.700;2022-12-05T09:16:06;26.70;;;22.57;;
17151;SDS011;8691;50.828;4.700;2022-12-05T09:18:30;27.73;;;22.70;;
17151;SDS011;8691;50.828;4.700;2022-12-05T09:20:57;27.00;;;19.00;;
17151;SDS011;8691;50.828;4.700;2022-12-05T09:23:24;27.03;;;23.00;;
17151;SDS011;8691;50.828;4.700;2022-12-05T09:25:54;29.60;;;24.07;;
17151;SDS011;8691;50.828;4.700;2022-12-05T09:28:21;25.48;;;17.70;;
17151;SDS011;8691;50.828;4.700;2022-12-05T09:30:57;24.87;;;17.13;;
17151;SDS011;8691;50.828;4.700;2022-12-05T09:33:23;28.45;;;22.92;;
17151;SDS011;8691;50.828;4.700;2022-12-05T09:35:50;28.07;;;23.20;;
17151;SDS011;8691;50.828;4.700;2022-12-05T09:38:17;28.80;;;24.48;;
17151;SDS011;8691;50.828;4.700;2022-12-05T09:40:45;28.05;;;23.85;;
17151;SDS011;8691;50.828;4.700;2022-12-05T09:45:53;27.67;;;23.07;;
17151;SDS011;8691;50.828;4.700;2022-12-05T09:48:22;27.30;;;23.43;;
17151;SDS011;8691;50.828;4.700;2022-12-05T09:50:52;26.27;;;23.37;;
17151;SDS011;8691;50.828;4.700;2022-12-05T09:53:26;26.92;;;22.52;;
17151;SDS011;8691;50.828;4.700;2022-12-05T09:58:41;27.60;;;22.62;;
17151;SDS011;8691;50.828;4.700;2022-12-05T10:14:54;21.20;;;18.75;;
17151;SDS011;8691;50.828;4.700;2022-12-05T10:17:33;19.35;;;14.77;;
17151;SDS011;8691;50.828;4.700;2022-12-05T10:20:02;21.88;;;18.70;;
17151;SDS011;8691;50.828;4.700;2022-12-05T10:25:03;21.00;;;17.80;;
17151;SDS011;8691;50.828;4.700;2022-12-05T10:27:31;20.13;;;17.27;;
17151;SDS011;8691;50.828;4.700;2022-12-05T10:29:57;19.67;;;17.27;;
17151;SDS011;8691;50.828;4.700;2022-12-05T10:35:13;20.80;;;18.53;;
17151;SDS011;8691;50.828;4.700;2022-12-05T10:37:49;21.87;;;18.57;;
17151;SDS011;8691;50.828;4.700;2022-12-05T10:40:18;20.43;;;18.23;;
17151;SDS011;8691;50.828;4.700;2022-12-05T10:42:44;21.97;;;19.30;;
17151;SDS011;8691;50.828;4.700;2022-12-05T10:45:16;21.67;;;19.10;;
17151;SDS011;8691;50.828;4.700;2022-12-05T10:47:42;22.60;;;20.10;;
17151;SDS011;8691;50.828;4.700;2022-12-05T10:50:16;21.03;;;18.63;;
17151;SDS011;8691;50.828;4.700;2022-12-05T10:52:36;22.33;;;19.93;;
17151;SDS011;8691;50.828;4.700;2022-12-05T10:55:03;19.17;;;17.10;;
17151;SDS011;8691;50.828;4.700;2022-12-05T10:57:30;19.17;;;17.10;;
17151;SDS011;8691;50.828;4.700;2022-12-05T10:59:57;17.67;;;15.90;;
17151;SDS011;8691;50.828;4.700;2022-12-05T11:02:24;17.73;;;15.73;;
17151;SDS011;8691;50.828;4.700;2022-12-05T11:04:54;18.42;;;16.55;;
17151;SDS011;8691;50.828;4.700;2022-12-05T11:07:25;18.38;;;16.48;;
17151;SDS011;8691;50.828;4.700;2022-12-05T11:09:53;17.83;;;15.93;;
17151;SDS011;8691;50.828;4.700;2022-12-05T11:12:21;18.25;;;16.42;;
17151;SDS011;8691;50.828;4.700;2022-12-05T11:17:22;16.63;;;13.83;;
17151;SDS011;8691;50.828;4.700;2022-12-05T11:19:52;14.33;;;12.50;;
17151;SDS011;8691;50.828;4.700;2022-12-05T11:22:19;16.10;;;14.32;;
17151;SDS011;8691;50.828;4.700;2022-12-05T11:24:46;17.42;;;15.62;;
17151;SDS011;8691;50.828;4.700;2022-12-05T11:29:54;11.87;;;10.67;;
17151;SDS011;8691;50.828;4.700;2022-12-05T11:32:26;16.50;;;14.77;;
17151;SDS011;8691;50.828;4.700;2022-12-05T11:37:37;16.70;;;15.05;;
17151;SDS011;8691;50.828;4.700;2022-12-05T11:45:54;12.50;;;11.20;;
17151;SDS011;8691;50.828;4.700;2022-12-05T11:48:37;11.93;;;10.70;;
17151;SDS011;8691;50.828;4.700;2022-12-05T11:56:37;17.95;;;16.08;;
17151;SDS011;8691;50.828;4.700;2022-12-05T12:04:48;17.67;;;15.77;;
17151;SDS011;8691;50.828;4.700;2022-12-05T12:07:16;16.15;;;14.62;;
17151;SDS011;8691;50.828;4.700;2022-12-05T12:12:54;14.90;;;13.48;;
17151;SDS011;8691;50.828;4.700;2022-12-05T12:21:07;11.13;;;9.97;;
17151;SDS011;8691;50.828;4.700;2022-12-05T12:26:12;13.80;;;12.57;;
17151;SDS011;8691;50.828;4.700;2022-12-05T12:34:04;12.93;;;11.73;;
17151;SDS011;8691;50.828;4.700;2022-12-05T12:36:34;12.47;;;11.30;;
17151;SDS011;8691;50.828;4.700;2022-12-05T12:39:19;13.10;;;11.90;;
17151;SDS011;8691;50.828;4.700;2022-12-05T12:41:55;12.70;;;11.57;;
17151;SDS011;8691;50.828;4.700;2022-12-05T12:46:49;12.73;;;11.52;;
17151;SDS011;8691;50.828;4.700;2022-12-05T12:49:24;12.73;;;11.52;;
17151;SDS011;8691;50.828;4.700;2022-12-05T12:51:52;12.75;;;11.57;;
17151;SDS011;8691;50.828;4.700;2022-12-05T12:54:27;13.37;;;12.17;;
17151;SDS011;8691;50.828;4.700;2022-12-05T12:57:19;12.82;;;11.62;;
17151;SDS011;8691;50.828;4.700;2022-12-05T13:00:02;13.73;;;12.33;;
17151;SDS011;8691;50.828;4.700;2022-12-05T13:02:44;13.65;;;12.45;;
17151;SDS011;8691;50.828;4.700;2022-12-05T13:08:15;13.60;;;12.40;;
17151;SDS011;8691;50.828;4.700;2022-12-05T13:10:41;13.38;;;12.18;;
17151;SDS011;8691;50.828;4.700;2022-12-05T13:13:06;9.57;;;8.47;;
17151;SDS011;8691;50.828;4.700;2022-12-05T13:15:34;13.10;;;11.80;;
17151;SDS011;8691;50.828;4.700;2022-12-05T13:18:00;13.98;;;12.68;;
17151;SDS011;8691;50.828;4.700;2022-12-05T13:20:28;13.90;;;12.50;;
17151;SDS011;8691;50.828;4.700;2022-12-05T13:22:54;14.38;;;13.07;;
17151;SDS011;8691;50.828;4.700;2022-12-05T13:25:23;11.57;;;10.40;;
17151;SDS011;8691;50.828;4.700;2022-12-05T13:27:56;13.77;;;12.45;;
17151;SDS011;8691;50.828;4.700;2022-12-05T13:30:22;14.77;;;13.47;;
17151;SDS011;8691;50.828;4.700;2022-12-05T13:32:54;13.88;;;12.57;;
17151;SDS011;8691;50.828;4.700;2022-12-05T13:35:19;13.90;;;12.60;;
17151;SDS011;8691;50.828;4.700;2022-12-05T13:38:03;13.63;;;12.33;;
17151;SDS011;8691;50.828;4.700;2022-12-05T13:40:51;14.13;;;12.73;;
17151;SDS011;8691;50.828;4.700;2022-12-05T13:43:40;11.40;;;10.30;;
17151;SDS011;8691;50.828;4.700;2022-12-05T13:46:10;13.10;;;11.90;;
17151;SDS011;8691;50.828;4.700;2022-12-05T13:48:38;11.07;;;9.97;;
17151;SDS011;8691;50.828;4.700;2022-12-05T13:51:06;13.15;;;11.90;;
17151;SDS011;8691;50.828;4.700;2022-12-05T13:58:53;14.57;;;13.17;;
17151;SDS011;8691;50.828;4.700;2022-12-05T14:03:56;14.82;;;13.50;;
17151;SDS011;8691;50.828;4.700;2022-12-05T14:17:27;11.67;;;10.47;;
17151;SDS011;8691;50.828;4.700;2022-12-05T14:20:00;11.10;;;10.03;;
17151;SDS011;8691;50.828;4.700;2022-12-05T14:22:35;15.53;;;14.03;;
17151;SDS011;8691;50.828;4.700;2022-12-05T14:25:08;15.62;;;14.12;;
17151;SDS011;8691;50.828;4.700;2022-12-05T14:28:01;13.63;;;11.13;;
17151;SDS011;8691;50.828;4.700;2022-12-05T14:30:32;15.65;;;14.07;;
17151;SDS011;8691;50.828;4.700;2022-12-05T14:32:55;15.65;;;14.15;;
17151;SDS011;8691;50.828;4.700;2022-12-05T14:35:24;15.90;;;14.30;;
17151;SDS011;8691;50.828;4.700;2022-12-05T14:42:50;15.95;;;14.45;;
17151;SDS011;8691;50.828;4.700;2022-12-05T14:58:45;17.10;;;15.48;;
17151;SDS011;8691;50.828;4.700;2022-12-05T15:06:28;16.30;;;14.70;;
17151;SDS011;8691;50.828;4.700;2022-12-05T15:08:56;15.70;;;14.30;;
17151;SDS011;8691;50.828;4.700;2022-12-05T15:11:24;16.40;;;14.80;;
17151;SDS011;8691;50.828;4.700;2022-12-05T15:13:57;17.30;;;15.60;;
17151;SDS011;8691;50.828;4.700;2022-12-05T15:16:23;16.65;;;15.00;;
17151;SDS011;8691;50.828;4.700;2022-12-05T15:18:50;17.73;;;15.98;;
17151;SDS011;8691;50.828;4.700;2022-12-05T15:21:24;16.95;;;15.25;;
17151;SDS011;8691;50.828;4.700;2022-12-05T15:24:04;19.05;;;17.23;;
17151;SDS011;8691;50.828;4.700;2022-12-05T15:26:36;19.90;;;17.90;;
17151;SDS011;8691;50.828;4.700;2022-12-05T15:29:09;18.08;;;16.27;;
17151;SDS011;8691;50.828;4.700;2022-12-05T15:32:24;18.00;;;16.10;;
17151;SDS011;8691;50.828;4.700;2022-12-05T15:34:14;17.65;;;15.95;;
17151;SDS011;8691;50.828;4.700;2022-12-05T15:36:39;17.38;;;15.68;;
17151;SDS011;8691;50.828;4.700;2022-12-05T15:39:05;17.73;;;15.90;;
17151;SDS011;8691;50.828;4.700;2022-12-05T15:41:44;17.35;;;15.65;;
17151;SDS011;8691;50.828;4.700;2022-12-05T15:44:11;14.47;;;12.93;;
17151;SDS011;8691;50.828;4.700;2022-12-05T15:46:38;18.00;;;16.10;;
17151;SDS011;8691;50.828;4.700;2022-12-05T15:49:15;18.38;;;16.62;;
17151;SDS011;8691;50.828;4.700;2022-12-05T15:51:41;18.23;;;14.13;;
17151;SDS011;8691;50.828;4.700;2022-12-05T15:54:19;19.33;;;17.43;;
17151;SDS011;8691;50.828;4.700;2022-12-05T15:56:58;20.92;;;18.83;;
17151;SDS011;8691;50.828;4.700;2022-12-05T15:59:24;16.03;;;14.40;;
17151;SDS011;8691;50.828;4.700;2022-12-05T16:01:55;16.93;;;13.43;;
17151;SDS011;8691;50.828;4.700;2022-12-05T16:04:31;19.27;;;17.37;;
17151;SDS011;8691;50.828;4.700;2022-12-05T16:06:53;20.38;;;18.38;;
17151;SDS011;8691;50.828;4.700;2022-12-05T16:09:23;15.50;;;13.90;;
17151;SDS011;8691;50.828;4.700;2022-12-05T16:12:00;19.70;;;17.80;;
17151;SDS011;8691;50.828;4.700;2022-12-05T16:14:23;16.13;;;13.47;;
17151;SDS011;8691;50.828;4.700;2022-12-05T16:16:51;19.33;;;17.33;;
17151;SDS011;8691;50.828;4.700;2022-12-05T16:19:20;19.30;;;17.30;;
17151;SDS011;8691;50.828;4.700;2022-12-05T16:21:45;19.20;;;17.30;;
17151;SDS011;8691;50.828;4.700;2022-12-05T16:27:05;19.47;;;17.50;;
17151;SDS011;8691;50.828;4.700;2022-12-05T16:29:39;18.38;;;16.58;;
17151;SDS011;8691;50.828;4.700;2022-12-05T16:32:12;14.87;;;13.33;;
17151;SDS011;8691;50.828;4.700;2022-12-05T16:34:32;18.42;;;16.62;;
17151;SDS011;8691;50.828;4.700;2022-12-05T16:36:59;18.70;;;16.90;;
17151;SDS011;8691;50.828;4.700;2022-12-05T16:39:26;18.70;;;16.80;;
17151;SDS011;8691;50.828;4.700;2022-12-05T16:41:53;20.67;;;17.98;;
17151;SDS011;8691;50.828;4.700;2022-12-05T16:46:53;19.15;;;17.25;;
17151;SDS011;8691;50.828;4.700;2022-12-05T16:54:33;18.88;;;17.00;;
17151;SDS011;8691;50.828;4.700;2022-12-05T16:57:00;18.85;;;17.05;;
17151;SDS011;8691;50.828;4.700;2022-12-05T16:59:31;20.10;;;18.10;;
17151;SDS011;8691;50.828;4.700;2022-12-05T17:02:00;18.50;;;16.70;;
17151;SDS011;8691;50.828;4.700;2022-12-05T17:04:27;18.88;;;16.98;;
17151;SDS011;8691;50.828;4.700;2022-12-05T17:06:54;19.38;;;17.38;;
17151;SDS011;8691;50.828;4.700;2022-12-05T17:09:20;15.40;;;13.73;;
17151;SDS011;8691;50.828;4.700;2022-12-05T17:11:48;19.52;;;17.52;;
17151;SDS011;8691;50.828;4.700;2022-12-05T17:14:14;20.62;;;18.60;;
17151;SDS011;8691;50.828;4.700;2022-12-05T17:16:41;20.30;;;18.30;;
17151;SDS011;8691;50.828;4.700;2022-12-05T17:19:09;21.60;;;19.50;;
17151;SDS011;8691;50.828;4.700;2022-12-05T17:21:35;17.00;;;14.67;;
17151;SDS011;8691;50.828;4.700;2022-12-05T17:24:02;21.70;;;19.60;;
17151;SDS011;8691;50.828;4.700;2022-12-05T17:26:29;22.90;;;20.67;;
17151;SDS011;8691;50.828;4.700;2022-12-05T17:28:55;22.87;;;20.57;;